Data for 04/18/2017

Time Sea-Level Adjusted Pressure Absolute Pressure Temperature Relative Humidity Dew Point   
(mb) (inHg) (mb) (inHg) (C) (F) (%) (C) (F)
00:05 1016 30 845 24.95 3.8 38.9 67 -1.7 28.9
00:10 1016 30 845 24.95 3.5 38.3 69 -1.5 29.2
00:15 1016 30 845 24.95 3.4 38.1 69 -1.7 28.9
00:20 1016 30 845 24.95 3.4 38.1 69 -1.7 28.9
00:25 1016 30 845 24.95 3.3 37.9 70 -1.6 29.1
00:30 1016 30 845 24.95 3.1 37.6 71 -1.7 28.9
00:35 1016 30 845 24.95 3.1 37.6 70 -1.8 28.7
00:40 1016 30 845 24.95 3 37.4 71 -1.7 29
00:45 1016 30 845 24.95 2.8 37 72 -1.7 28.9
00:50 1016 30 845 24.95 2.8 37.1 71 -1.9 28.6
00:55 1016 30 845 24.95 2.7 36.9 73 -1.6 29
01:00 1016 30 845 24.95 2.6 36.7 74 -1.6 29.1
01:05 1016 30 845 24.95 2.7 36.8 72 -1.8 28.7
01:10 1016 30 845 24.95 3.1 37.6 69 -1.9 28.5
01:15 1016 30 845 24.95 3.3 37.9 70 -1.7 28.9
01:20 1016 30 845 24.95 3 37.4 72 -1.6 29.2
01:25 1016 30 845 24.95 2.7 36.9 72 -1.7 28.9
01:30 1016 30 845 24.95 2.7 36.8 72 -1.9 28.5
01:35 1016 30 845 24.95 2.9 37.2 70 -2 28.4
01:40 1016 30 845 24.95 3 37.4 70 -1.9 28.6
01:45 1016 30 845 24.95 2.9 37.2 71 -1.9 28.6
01:50 1016 30 845 24.95 2.9 37.2 70 -2 28.3
01:55 1016 30 845 24.95 3.1 37.6 69 -2.1 28.2
02:00 1016 30 845 24.95 3.4 38.1 67 -2.1 28.2
02:05 1016 30 845 24.95 3.6 38.4 68 -1.8 28.7
02:10 1016 30 845 24.95 3.4 38.1 68 -2 28.3
02:15 1016 30 845 24.95 3.3 38 68 -1.9 28.5
02:20 1016 30 845 24.95 3.2 37.8 69 -2 28.5
02:25 1016 30 845 24.95 3.2 37.7 69 -2 28.3
02:30 1016 30 845 24.95 3.2 37.7 69 -2 28.4
02:35 1016 30 845 24.95 3.1 37.7 68 -2.2 28
02:40 1016 30 845 24.95 3.3 37.9 68 -2.1 28.2
02:45 1016 30 845 24.95 3.2 37.7 68 -2.2 28.1
02:50 1016 30 845 24.95 3.2 37.8 68 -2.1 28.2
02:55 1016 30 845 24.95 3.4 38.2 67 -2.1 28.2
03:00 1015 29.97 845 24.95 3.6 38.4 66 -2.3 27.9
03:05 1015 29.97 845 24.95 3.6 38.5 66 -2.2 28.1
03:10 1015 29.97 845 24.95 3.5 38.4 66 -2.2 28.1
03:15 1015 29.97 845 24.95 3.4 38.2 67 -2.2 28
03:20 1015 29.97 844 24.92 3.4 38.1 67 -2.1 28.3
03:25 1015 29.97 845 24.95 3.2 37.7 69 -1.9 28.6
03:30 1015 29.97 844 24.92 2.9 37.2 71 -1.9 28.5
03:35 1015 29.97 844 24.92 2.8 37.1 71 -2 28.4
03:40 1015 29.97 844 24.92 2.8 37.1 70 -2.1 28.3
03:45 1015 29.97 844 24.92 3 37.4 69 -2.2 28.1
03:50 1015 29.97 844 24.92 3.1 37.6 68 -2.2 28.1
03:55 1015 29.97 844 24.92 3.1 37.6 69 -2.1 28.2
04:00 1015 29.97 844 24.92 3.1 37.5 70 -1.9 28.6
04:05 1015 29.97 844 24.92 2.8 37.1 71 -1.9 28.6
04:10 1015 29.97 844 24.92 2.8 37 70 -2.1 28.3
04:15 1015 29.97 844 24.92 3 37.4 70 -1.9 28.5
04:20 1015 29.97 844 24.92 2.9 37.2 70 -2 28.5
04:25 1015 29.97 844 24.92 2.9 37.2 68 -2.4 27.7
04:30 1015 29.97 845 24.95 3.2 37.7 66 -2.6 27.3
04:35 1015 29.97 845 24.95 3.3 38 66 -2.4 27.8
04:40 1015 29.97 845 24.95 3.3 38 67 -2.3 27.9
04:45 1015 29.97 845 24.95 3.4 38.1 66 -2.3 27.8
04:50 1015 29.97 845 24.95 3.4 38.1 67 -2.1 28.3
04:55 1015 29.97 845 24.95 3.2 37.8 67 -2.4 27.7
05:00 1015 29.97 845 24.95 3.2 37.8 69 -1.9 28.6
05:05 1015 29.97 845 24.95 3.1 37.6 67 -2.5 27.6
05:10 1015 29.97 845 24.95 3.3 37.9 66 -2.4 27.6
05:15 1016 30 845 24.95 3.4 38 69 -1.9 28.6
05:20 1016 30 845 24.95 3.1 37.6 70 -1.9 28.6
05:25 1016 30 845 24.95 3 37.4 71 -1.8 28.7
05:30 1015 29.97 845 24.95 3 37.4 71 -1.7 28.9
05:35 1015 29.97 845 24.95 3.1 37.6 71 -1.6 29
05:40 1016 30 845 24.95 3.4 38.1 68 -1.9 28.5
05:45 1016 30 845 24.95 3.8 38.8 66 -2 28.4
05:50 1016 30 845 24.95 3.9 39 66 -1.9 28.7
05:55 1016 30 845 24.95 3.8 38.8 69 -1.4 29.5
06:00 1016 30 845 24.95 3.3 38 71 -1.4 29.5
06:05 1016 30 845 24.95 2.9 37.2 72 -1.6 29.1
06:10 1016 30 845 24.95 2.8 37.1 72 -1.7 28.9
06:15 1016 30 845 24.95 2.9 37.2 72 -1.7 28.9
06:20 1016 30 845 24.95 2.8 37 72 -1.8 28.8
06:25 1016 30 845 24.95 2.7 36.9 72 -1.9 28.6
06:30 1016 30 845 24.95 2.8 37 71 -2 28.4
06:35 1016 30 845 24.95 2.9 37.2 70 -2.1 28.2
06:40 1016 30 845 24.95 2.9 37.2 70 -2 28.4
06:45 1016 30 845 24.95 2.8 37.1 72 -1.8 28.8
06:50 1016 30 845 24.95 2.7 36.8 72 -1.8 28.8
06:55 1016 30 845 24.95 2.7 36.8 72 -1.9 28.6
07:00 1016 30 845 24.95 2.9 37.2 72 -1.7 29
07:05 1016 30 845 24.95 2.8 37 72 -1.9 28.6
07:10 1016 30 845 24.95 2.7 36.9 73 -1.6 29.1
07:15 1016 30 845 24.95 2.7 36.8 72 -1.9 28.5
07:20 1016 30 845 24.95 2.8 37.1 71 -1.8 28.7
07:25 1016 30 846 24.98 2.9 37.3 72 -1.7 29
07:30 1016 30 846 24.98 3 37.5 72 -1.6 29.2
07:35 1016 30 846 24.98 3.1 37.6 71 -1.6 29.1
07:40 1016 30 846 24.98 3.2 37.8 69 -1.9 28.6
07:45 1016 30 846 24.98 3.5 38.2 67 -2.2 28.1
07:50 1017 30.03 846 24.98 3.6 38.4 67 -2 28.4
07:55 1017 30.03 846 24.98 3.6 38.6 66 -2.2 28
08:00 1016 30 846 24.98 3.8 38.8 65 -2.2 28.1
08:05 1016 30 846 24.98 3.9 39 66 -1.8 28.7
08:10 1016 30 846 24.98 3.9 39 66 -1.8 28.7
08:15 1016 30 846 24.98 4.1 39.4 66 -1.8 28.8
08:20 1016 30 846 24.98 4.4 40 64 -1.8 28.8
08:25 1016 30 845 24.95 4.9 40.9 62 -1.8 28.7
08:30 1016 30 845 24.95 5.2 41.4 62 -1.4 29.6
08:35 1016 30 845 24.95 5.3 41.6 62 -1.4 29.6
08:40 1016 30 845 24.95 5.5 41.8 61 -1.5 29.3
08:45 1016 30 845 24.95 5.6 42.1 62 -1.1 30
08:50 1016 30 845 24.95 5.6 42.2 62 -1 30.1
08:55 1016 30 845 24.95 5.6 42.1 64 -0.7 30.7
09:00 1016 30 845 24.95 5.7 42.3 63 -0.6 30.8
09:05 1016 30 845 24.95 5.9 42.6 62 -0.8 30.6
09:10 1016 30 845 24.95 6 42.8 61 -1 30.3
09:15 1016 30 845 24.95 6.4 43.4 57 -1.4 29.4
09:20 1016 30 845 24.95 6.6 43.9 55 -1.7 29
09:25 1016 30 845 24.95 6.9 44.5 53 -1.9 28.7
09:30 1016 30 845 24.95 7.3 45.1 52 -1.8 28.8
09:35 1016 30 845 24.95 7.8 46 50 -1.9 28.6
09:40 1016 30 845 24.95 8.3 46.9 48 -2.1 28.2
09:45 1016 30 845 24.95 8.6 47.5 45 -2.7 27.2
09:50 1016 30 845 24.95 8.6 47.4 46 -2.5 27.6
09:55 1016 30 845 24.95 8.5 47.3 45 -2.7 27.1
10:00 1016 30 845 24.95 9 48.1 43 -2.8 26.9
10:05 1016 30 845 24.95 9.3 48.8 43 -2.5 27.6
10:10 1016 30 846 24.98 9.5 49.1 43 -2.4 27.7
10:15 1016 30 846 24.98 9.2 48.6 44 -2.5 27.5
10:20 1016 30 846 24.98 9.1 48.4 42 -3.1 26.5
10:25 1016 30 846 24.98 9 48.2 42 -3.2 26.2
10:30 1016 30 846 24.98 9.2 48.5 42 -3.1 26.4
10:35 1016 30 846 24.98 9.4 48.8 41 -3.3 26.1
10:40 1016 30 846 24.98 9.3 48.8 40 -3.5 25.8
10:45 1016 30 846 24.98 10.1 50.2 39 -3.1 26.4
10:50 1016 30 846 24.98 10.6 51 36 -3.8 25.2
10:55 1016 30 846 24.98 10.7 51.2 37 -3.2 26.2
11:00 1016 30 846 24.98 10.6 51.1 36 -3.9 25
11:05 1016 30 846 24.98 10.6 51.2 36 -3.8 25.2
11:10 1016 30 846 24.98 10.3 50.6 37 -3.7 25.3
11:15 1016 30 846 24.98 10.8 51.4 36 -3.6 25.4
11:20 1016 30 845 24.95 11.5 52.7 34 -3.8 25.2
11:25 1016 30 845 24.95 10.9 51.6 36 -3.5 25.8
11:30 1016 30 845 24.95 11.1 51.9 34 -4.1 24.7
11:35 1016 30 845 24.95 11.3 52.3 35 -3.8 25.2
11:40 1016 30 845 24.95 11 51.8 35 -3.8 25.1
11:45 1016 30 845 24.95 11.3 52.3 35 -3.5 25.7
11:50 1016 30 845 24.95 10.9 51.6 36 -3.4 26
11:55 1016 30 845 24.95 11 51.8 38 -2.9 26.8
12:00 1016 30 845 24.95 11.6 52.8 35 -3.4 26
12:05 1016 30 845 24.95 11.8 53.2 36 -2.9 26.8
12:10 1015 29.97 845 24.95 12.1 53.9 33 -3.5 25.6
12:15 1015 29.97 845 24.95 12.1 53.7 37 -2.3 27.9
12:20 1015 29.97 845 24.95 12 53.6 36 -2.5 27.5
12:25 1015 29.97 844 24.92 12.7 54.8 33 -3.3 26.1
12:30 1015 29.97 844 24.92 13.2 55.8 33 -2.7 27.2
12:35 1015 29.97 844 24.92 13.4 56.1 31 -3.5 25.7
12:40 1015 29.97 844 24.92 13.9 57 30 -3.3 26.1
12:45 1015 29.97 844 24.92 14.1 57.4 30 -3.1 26.4
12:50 1015 29.97 844 24.92 14.5 58.2 29 -3.1 26.3
12:55 1015 29.97 844 24.92 14.3 57.8 29 -3.5 25.7
13:00 1015 29.97 844 24.92 14.5 58.1 28 -3.9 24.9
13:05 1015 29.97 844 24.92 14.3 57.8 29 -3.4 25.8
13:10 1015 29.97 844 24.92 14.5 58.2 29 -3.3 26
13:15 1015 29.97 844 24.92 14.2 57.5 29 -3.6 25.5
13:20 1015 29.97 844 24.92 13.8 56.9 28 -4.1 24.7
13:25 1014 29.94 844 24.92 15.2 59.4 28 -3.1 26.4
13:30 1014 29.94 844 24.92 15 59 30 -2.5 27.5
13:35 1014 29.94 844 24.92 15.3 59.5 27 -3.6 25.6
13:40 1014 29.94 843 24.89 15.6 60 28 -2.6 27.4
13:45 1014 29.94 843 24.89 14.9 58.9 28 -3.2 26.2
13:50 1014 29.94 843 24.89 15.2 59.4 28 -2.9 26.8
13:55 1014 29.94 843 24.89 14.5 58.2 29 -3.2 26.3
14:00 1014 29.94 843 24.89 14.5 58.1 29 -3.5 25.8
14:05 1014 29.94 843 24.89 14.5 58.1 29 -3 26.5
14:10 1014 29.94 843 24.89 14.7 58.4 29 -3.1 26.4
14:15 1014 29.94 843 24.89 13.8 56.9 31 -3.1 26.4
14:20 1014 29.94 843 24.89 13.8 56.8 30 -3.5 25.6
14:25 1014 29.94 843 24.89 14.5 58 28 -3.6 25.5
14:30 1014 29.94 843 24.89 14.7 58.4 29 -3.3 26.1
14:35 1014 29.94 843 24.89 14.9 58.8 28 -3.3 26.1
14:40 1014 29.94 843 24.89 15.6 60 27 -3.5 25.8
14:45 1014 29.94 843 24.89 16.1 60.9 27 -3 26.7
14:50 1014 29.94 843 24.89 16.4 61.5 26 -3.1 26.4
14:55 1013 29.91 843 24.89 16.5 61.7 27 -2.4 27.7
15:00 1013 29.91 843 24.89 17.1 62.8 26 -2.7 27.2
15:05 1013 29.91 843 24.89 17.1 62.7 26 -2.6 27.3
15:10 1013 29.91 843 24.89 15.7 60.3 27 -3 26.6
15:15 1013 29.91 842 24.86 15.9 60.7 27 -2.9 26.9
15:20 1013 29.91 842 24.86 17.3 63.1 27 -1.7 29
15:25 1013 29.91 842 24.86 16.1 61 27 -2.7 27.2
15:30 1013 29.91 842 24.86 16.2 61.2 27 -2.7 27.2
15:35 1013 29.91 842 24.86 15.8 60.4 28 -2.4 27.7
15:40 1013 29.91 842 24.86 16.3 61.3 28 -2 28.4
15:45 1013 29.91 842 24.86 16.8 62.2 27 -2 28.4
15:50 1013 29.91 842 24.86 16.2 61.2 28 -2.3 27.9
15:55 1013 29.91 842 24.86 16.5 61.8 28 -2 28.3
16:00 1013 29.91 842 24.86 15.8 60.5 30 -1.8 28.8
16:05 1013 29.91 842 24.86 15.5 59.9 30 -2 28.4
16:10 1013 29.91 842 24.86 15.5 59.9 30 -1.7 29
16:15 1013 29.91 842 24.86 15.4 59.7 31 -1.8 28.8
16:20 1013 29.91 842 24.86 15.1 59.1 31 -1.8 28.7
16:25 1013 29.91 842 24.86 14.9 58.7 31 -1.9 28.5
16:30 1013 29.91 842 24.86 14.8 58.7 31 -2 28.4
16:35 1013 29.91 842 24.86 14.7 58.5 32 -1.9 28.6
16:40 1013 29.91 842 24.86 14.3 57.7 34 -1.4 29.5
16:45 1013 29.91 842 24.86 13.7 56.6 35 -1.3 29.6
16:50 1013 29.91 842 24.86 13.5 56.4 37 -0.9 30.3
16:55 1013 29.91 843 24.89 13.1 55.5 40 -0.1 31.8
17:00 1013 29.91 843 24.89 13 55.5 42 0.5 32.9
17:05 1014 29.94 843 24.89 12.4 54.2 52 2.8 37
17:10 1014 29.94 843 24.89 10.9 51.7 62 4 39.1
17:15 1014 29.94 843 24.89 9.9 49.7 67 4 39.2
17:20 1014 29.94 844 24.92 9.6 49.2 68 4 39.1
17:25 1014 29.94 844 24.92 9.6 49.2 67 3.7 38.6
17:30 1015 29.97 844 24.92 9.7 49.5 66 3.6 38.5
17:35 1015 29.97 844 24.92 9.9 49.8 65 3.7 38.7
17:40 1015 29.97 844 24.92 10 50.1 65 3.7 38.7
17:45 1015 29.97 844 24.92 9.9 49.7 69 4.4 40
17:50 1015 29.97 844 24.92 9.5 49.1 69 4.1 39.4
17:55 1015 29.97 844 24.92 8.8 47.9 73 4.3 39.8
18:00 1015 29.97 844 24.92 8.7 47.7 73 4.2 39.6
18:05 1015 29.97 844 24.92 8.8 47.9 72 4 39.2
18:10 1015 29.97 844 24.92 8.9 47.9 69 3.6 38.5
18:15 1015 29.97 844 24.92 8.8 47.9 68 3.2 37.8
18:20 1015 29.97 844 24.92 8.7 47.7 70 3.6 38.5
18:25 1015 29.97 844 24.92 8.8 47.8 71 3.8 38.8
18:30 1015 29.97 844 24.92 8.6 47.5 74 4.2 39.5
18:35 1015 29.97 844 24.92 8.3 47 79 4.9 40.8
18:40 1015 29.97 844 24.92 8.3 47 78 4.6 40.3
18:45 1015 29.97 844 24.92 8.4 47 78 4.7 40.5
18:50 1015 29.97 844 24.92 8.1 46.7 75 4.1 39.3
18:55 1015 29.97 844 24.92 8.2 46.7 74 3.9 39.1
19:00 1015 29.97 844 24.92 8.2 46.7 74 3.8 38.8
19:05 1015 29.97 844 24.92 8.1 46.6 75 3.9 39.1
19:10 1014 29.94 844 24.92 8.2 46.8 74 3.8 38.9
19:15 1014 29.94 844 24.92 8.2 46.8 74 3.9 39.1
19:20 1014 29.94 843 24.89 8.1 46.7 76 4.1 39.4
19:25 1014 29.94 843 24.89 8 46.5 75 3.9 39
19:30 1014 29.94 844 24.92 7.9 46.2 76 3.9 39
19:35 1014 29.94 844 24.92 7.9 46.3 75 3.8 38.8
19:40 1015 29.97 844 24.92 7.9 46.3 74 3.6 38.5
19:45 1015 29.97 844 24.92 8 46.3 75 3.7 38.7
19:50 1014 29.94 844 24.92 7.9 46.3 74 3.6 38.5
19:55 1015 29.97 844 24.92 7.8 46.1 74 3.5 38.4
20:00 1015 29.97 844 24.92 7.7 45.8 75 3.5 38.2
20:05 1014 29.94 844 24.92 7.6 45.6 74 3.2 37.8
20:10 1014 29.94 844 24.92 7.5 45.5 72 2.7 36.9
20:15 1014 29.94 844 24.92 7.5 45.5 72 2.7 36.9
20:20 1014 29.94 844 24.92 7.5 45.5 72 2.7 36.9
20:25 1014 29.94 844 24.92 7.5 45.4 73 3 37.3
20:30 1014 29.94 844 24.92 7.3 45.2 76 3.3 38
20:35 1014 29.94 844 24.92 7.2 45 77 3.5 38.3
20:40 1014 29.94 844 24.92 7.2 45 77 3.5 38.3
20:45 1014 29.94 844 24.92 7.2 44.9 77 3.5 38.3
20:50 1014 29.94 844 24.92 7.1 44.8 78 3.5 38.3
20:55 1014 29.94 844 24.92 7.1 44.8 77 3.4 38.2
21:00 1015 29.97 844 24.92 7.1 44.8 77 3.3 38
21:05 1015 29.97 844 24.92 7.1 44.8 78 3.5 38.2
21:10 1015 29.97 844 24.92 7 44.6 77 3.3 38
21:15 1015 29.97 844 24.92 6.9 44.3 77 3.1 37.5
21:20 1015 29.97 844 24.92 6.8 44.2 78 3.2 37.7
21:25 1015 29.97 844 24.92 6.7 44 78 3.2 37.7
21:30 1015 29.97 844 24.92 6.6 43.8 79 3.2 37.7
21:35 1014 29.94 844 24.92 6.5 43.7 78 3 37.4
21:40 1014 29.94 844 24.92 6.6 43.9 78 3 37.4
21:45 1014 29.94 844 24.92 6.7 44 77 3 37.4
21:50 1015 29.97 844 24.92 6.7 44.1 77 2.9 37.2
21:55 1015 29.97 844 24.92 6.9 44.3 77 3 37.5
22:00 1015 29.97 844 24.92 6.7 44.1 77 2.9 37.3
22:05 1015 29.97 844 24.92 6.6 43.9 77 2.9 37.3
22:10 1015 29.97 844 24.92 6.7 44 76 2.8 37.1
22:15 1015 29.97 844 24.92 6.7 44.1 76 2.7 36.9
22:20 1015 29.97 844 24.92 6.7 44.1 75 2.7 36.9
22:25 1015 29.97 844 24.92 6.7 44.1 76 2.8 37.1
22:30 1015 29.97 844 24.92 6.8 44.2 76 2.7 36.9
22:35 1015 29.97 845 24.95 6.8 44.2 75 2.8 37
22:40 1016 30 845 24.95 6.9 44.4 75 2.8 37.1
22:45 1016 30 845 24.95 6.8 44.3 74 2.4 36.4
22:50 1016 30 845 24.95 6.1 43.1 78 2.6 36.6
22:55 1016 30 845 24.95 5.7 42.3 80 2.5 36.5
23:00 1016 30 845 24.95 5.5 41.9 81 2.5 36.6
23:05 1016 30 845 24.95 5.5 41.8 82 2.7 36.8
23:10 1016 30 845 24.95 5.3 41.6 83 2.8 37
23:15 1016 30 846 24.98 5.2 41.4 84 2.8 37
23:20 1017 30.03 846 24.98 5.2 41.4 84 2.7 36.9
23:25 1017 30.03 846 24.98 5.2 41.3 84 2.8 37
23:30 1017 30.03 846 24.98 5.1 41.2 84 2.7 36.8
23:35 1017 30.03 846 24.98 5 41 83 2.4 36.3
23:40 1017 30.03 846 24.98 5 40.9 82 2.2 35.9
23:45 1017 30.03 846 24.98 5.1 41.2 81 2.2 35.9
23:50 1017 30.03 846 24.98 5.1 41.3 81 2.1 35.8
23:55 1017 30.03 846 24.98 5.2 41.3 81 2.2 35.9
24:00 1017 30.03 846 24.98 5.2 41.4 81 2.2 36